sensor_id;sensor_type;location;lat;lon;timestamp;P1;durP1;ratioP1;P2;durP2;ratioP2
70705;SDS011;59320;52.316;10.870;2023-05-16T00:00:54;9.10;;;8.07;;
70705;SDS011;59320;52.316;10.870;2023-05-16T00:03:22;11.15;;;8.13;;
70705;SDS011;59320;52.316;10.870;2023-05-16T00:05:51;9.70;;;8.13;;
70705;SDS011;59320;52.316;10.870;2023-05-16T00:08:18;9.18;;;7.32;;
70705;SDS011;59320;52.316;10.870;2023-05-16T00:10:45;9.38;;;7.70;;
70705;SDS011;59320;52.316;10.870;2023-05-16T00:13:12;10.70;;;7.63;;
70705;SDS011;59320;52.316;10.870;2023-05-16T00:15:40;11.07;;;8.15;;
70705;SDS011;59320;52.316;10.870;2023-05-16T00:18:08;8.25;;;7.45;;
70705;SDS011;59320;52.316;10.870;2023-05-16T00:20:39;9.85;;;8.05;;
70705;SDS011;59320;52.316;10.870;2023-05-16T00:23:07;12.60;;;8.02;;
70705;SDS011;59320;52.316;10.870;2023-05-16T00:25:35;11.52;;;7.65;;
70705;SDS011;59320;52.316;10.870;2023-05-16T00:28:02;10.68;;;7.88;;
70705;SDS011;59320;52.316;10.870;2023-05-16T00:30:29;10.18;;;6.90;;
70705;SDS011;59320;52.316;10.870;2023-05-16T00:32:56;8.82;;;7.28;;
70705;SDS011;59320;52.316;10.870;2023-05-16T00:35:24;10.18;;;7.03;;
70705;SDS011;59320;52.316;10.870;2023-05-16T00:37:51;8.55;;;6.93;;
70705;SDS011;59320;52.316;10.870;2023-05-16T00:40:21;9.13;;;6.90;;
70705;SDS011;59320;52.316;10.870;2023-05-16T00:42:48;8.30;;;6.38;;
70705;SDS011;59320;52.316;10.870;2023-05-16T00:45:16;8.05;;;5.95;;
70705;SDS011;59320;52.316;10.870;2023-05-16T00:47:43;8.98;;;6.70;;
70705;SDS011;59320;52.316;10.870;2023-05-16T00:50:11;11.40;;;6.80;;
70705;SDS011;59320;52.316;10.870;2023-05-16T00:52:38;10.02;;;6.50;;
70705;SDS011;59320;52.316;10.870;2023-05-16T00:55:05;8.23;;;6.05;;
70705;SDS011;59320;52.316;10.870;2023-05-16T00:57:36;7.88;;;6.18;;
70705;SDS011;59320;52.316;10.870;2023-05-16T01:00:03;8.90;;;5.78;;
70705;SDS011;59320;52.316;10.870;2023-05-16T01:02:34;7.35;;;5.82;;
70705;SDS011;59320;52.316;10.870;2023-05-16T01:05:03;17.75;;;5.70;;
70705;SDS011;59320;52.316;10.870;2023-05-16T01:07:31;9.73;;;5.72;;
70705;SDS011;59320;52.316;10.870;2023-05-16T01:09:58;6.47;;;4.70;;
70705;SDS011;59320;52.316;10.870;2023-05-16T01:12:28;7.00;;;4.82;;
70705;SDS011;59320;52.316;10.870;2023-05-16T01:15:06;5.80;;;4.53;;
70705;SDS011;59320;52.316;10.870;2023-05-16T01:17:37;6.78;;;4.63;;
70705;SDS011;59320;52.316;10.870;2023-05-16T01:20:18;9.45;;;4.78;;
70705;SDS011;59320;52.316;10.870;2023-05-16T01:23:04;6.87;;;4.67;;
70705;SDS011;59320;52.316;10.870;2023-05-16T01:25:50;6.10;;;4.10;;
70705;SDS011;59320;52.316;10.870;2023-05-16T01:28:23;5.75;;;3.45;;
70705;SDS011;59320;52.316;10.870;2023-05-16T01:30:51;4.30;;;3.65;;
70705;SDS011;59320;52.316;10.870;2023-05-16T01:33:19;5.22;;;3.55;;
70705;SDS011;59320;52.316;10.870;2023-05-16T01:35:47;3.42;;;3.00;;
70705;SDS011;59320;52.316;10.870;2023-05-16T01:38:22;4.65;;;3.20;;
70705;SDS011;59320;52.316;10.870;2023-05-16T01:40:52;5.05;;;2.92;;
70705;SDS011;59320;52.316;10.870;2023-05-16T01:43:29;7.38;;;3.03;;
70705;SDS011;59320;52.316;10.870;2023-05-16T01:46:02;7.47;;;3.20;;
70705;SDS011;59320;52.316;10.870;2023-05-16T01:51:10;3.70;;;2.85;;
70705;SDS011;59320;52.316;10.870;2023-05-16T01:53:39;6.35;;;2.63;;
70705;SDS011;59320;52.316;10.870;2023-05-16T01:56:13;4.47;;;3.00;;
70705;SDS011;59320;52.316;10.870;2023-05-16T01:58:43;4.50;;;2.55;;
70705;SDS011;59320;52.316;10.870;2023-05-16T02:01:11;3.53;;;2.70;;
70705;SDS011;59320;52.316;10.870;2023-05-16T02:03:39;6.05;;;3.00;;
70705;SDS011;59320;52.316;10.870;2023-05-16T02:06:06;6.43;;;2.70;;
70705;SDS011;59320;52.316;10.870;2023-05-16T02:08:33;4.05;;;2.28;;
70705;SDS011;59320;52.316;10.870;2023-05-16T02:11:00;7.00;;;2.83;;
70705;SDS011;59320;52.316;10.870;2023-05-16T02:13:27;4.03;;;2.42;;
70705;SDS011;59320;52.316;10.870;2023-05-16T02:15:56;5.38;;;2.60;;
70705;SDS011;59320;52.316;10.870;2023-05-16T02:18:23;4.80;;;2.65;;
70705;SDS011;59320;52.316;10.870;2023-05-16T02:20:52;4.20;;;2.55;;
70705;SDS011;59320;52.316;10.870;2023-05-16T02:23:19;3.70;;;2.80;;
70705;SDS011;59320;52.316;10.870;2023-05-16T02:25:47;3.03;;;2.60;;
70705;SDS011;59320;52.316;10.870;2023-05-16T02:28:14;6.15;;;2.50;;
70705;SDS011;59320;52.316;10.870;2023-05-16T02:30:42;4.32;;;2.35;;
70705;SDS011;59320;52.316;10.870;2023-05-16T02:33:10;5.65;;;2.40;;
70705;SDS011;59320;52.316;10.870;2023-05-16T02:35:37;3.40;;;2.60;;
70705;SDS011;59320;52.316;10.870;2023-05-16T02:38:05;4.07;;;2.53;;
70705;SDS011;59320;52.316;10.870;2023-05-16T02:40:32;4.85;;;2.40;;
70705;SDS011;59320;52.316;10.870;2023-05-16T02:42:59;4.65;;;2.72;;
70705;SDS011;59320;52.316;10.870;2023-05-16T02:45:26;8.40;;;2.33;;
70705;SDS011;59320;52.316;10.870;2023-05-16T02:47:53;5.50;;;2.90;;
70705;SDS011;59320;52.316;10.870;2023-05-16T02:50:21;6.72;;;2.83;;
70705;SDS011;59320;52.316;10.870;2023-05-16T02:52:49;4.30;;;2.60;;
70705;SDS011;59320;52.316;10.870;2023-05-16T02:55:17;3.85;;;2.38;;
70705;SDS011;59320;52.316;10.870;2023-05-16T02:57:44;3.63;;;2.60;;
70705;SDS011;59320;52.316;10.870;2023-05-16T03:00:12;3.42;;;2.42;;
70705;SDS011;59320;52.316;10.870;2023-05-16T03:02:39;5.10;;;2.55;;
70705;SDS011;59320;52.316;10.870;2023-05-16T03:05:07;7.50;;;3.08;;
70705;SDS011;59320;52.316;10.870;2023-05-16T03:07:37;4.13;;;2.50;;
70705;SDS011;59320;52.316;10.870;2023-05-16T03:10:04;3.97;;;2.30;;
70705;SDS011;59320;52.316;10.870;2023-05-16T03:12:32;3.97;;;2.50;;
70705;SDS011;59320;52.316;10.870;2023-05-16T03:15:00;4.40;;;2.15;;
70705;SDS011;59320;52.316;10.870;2023-05-16T03:17:28;4.60;;;2.08;;
70705;SDS011;59320;52.316;10.870;2023-05-16T03:19:56;8.23;;;2.55;;
70705;SDS011;59320;52.316;10.870;2023-05-16T03:22:23;5.00;;;2.47;;
70705;SDS011;59320;52.316;10.870;2023-05-16T03:24:51;4.72;;;1.95;;
70705;SDS011;59320;52.316;10.870;2023-05-16T03:27:18;5.18;;;2.13;;
70705;SDS011;59320;52.316;10.870;2023-05-16T03:29:48;4.93;;;1.90;;
70705;SDS011;59320;52.316;10.870;2023-05-16T03:32:15;6.22;;;2.42;;
70705;SDS011;59320;52.316;10.870;2023-05-16T03:34:42;3.88;;;2.25;;
70705;SDS011;59320;52.316;10.870;2023-05-16T03:37:11;3.90;;;2.17;;
70705;SDS011;59320;52.316;10.870;2023-05-16T03:39:39;3.33;;;2.20;;
70705;SDS011;59320;52.316;10.870;2023-05-16T03:42:07;3.58;;;2.25;;
70705;SDS011;59320;52.316;10.870;2023-05-16T03:44:34;3.70;;;2.10;;
70705;SDS011;59320;52.316;10.870;2023-05-16T03:47:01;7.50;;;2.28;;
70705;SDS011;59320;52.316;10.870;2023-05-16T03:49:29;4.78;;;1.90;;
70705;SDS011;59320;52.316;10.870;2023-05-16T03:51:56;4.40;;;2.30;;
70705;SDS011;59320;52.316;10.870;2023-05-16T03:54:24;4.75;;;1.95;;
70705;SDS011;59320;52.316;10.870;2023-05-16T03:56:51;3.78;;;2.10;;
70705;SDS011;59320;52.316;10.870;2023-05-16T03:59:20;3.22;;;2.03;;
70705;SDS011;59320;52.316;10.870;2023-05-16T04:04:17;4.80;;;1.90;;
70705;SDS011;59320;52.316;10.870;2023-05-16T04:06:44;3.78;;;1.80;;
70705;SDS011;59320;52.316;10.870;2023-05-16T04:09:11;3.25;;;1.67;;
70705;SDS011;59320;52.316;10.870;2023-05-16T04:11:38;4.03;;;1.98;;
70705;SDS011;59320;52.316;10.870;2023-05-16T04:14:05;3.58;;;2.00;;
70705;SDS011;59320;52.316;10.870;2023-05-16T04:16:33;2.08;;;1.58;;
70705;SDS011;59320;52.316;10.870;2023-05-16T04:19:00;3.85;;;1.90;;
70705;SDS011;59320;52.316;10.870;2023-05-16T04:21:28;6.35;;;1.90;;
70705;SDS011;59320;52.316;10.870;2023-05-16T04:23:55;5.80;;;2.00;;
70705;SDS011;59320;52.316;10.870;2023-05-16T04:26:23;3.15;;;1.83;;
70705;SDS011;59320;52.316;10.870;2023-05-16T04:28:51;4.10;;;2.10;;
70705;SDS011;59320;52.316;10.870;2023-05-16T04:31:19;5.13;;;1.88;;
70705;SDS011;59320;52.316;10.870;2023-05-16T04:33:49;4.55;;;1.92;;
70705;SDS011;59320;52.316;10.870;2023-05-16T04:36:16;4.75;;;1.92;;
70705;SDS011;59320;52.316;10.870;2023-05-16T04:38:43;3.97;;;2.22;;
70705;SDS011;59320;52.316;10.870;2023-05-16T04:41:11;6.65;;;2.03;;
70705;SDS011;59320;52.316;10.870;2023-05-16T04:43:38;5.75;;;2.05;;
70705;SDS011;59320;52.316;10.870;2023-05-16T04:46:06;5.43;;;1.98;;
70705;SDS011;59320;52.316;10.870;2023-05-16T04:48:34;7.45;;;1.95;;
70705;SDS011;59320;52.316;10.870;2023-05-16T04:51:02;5.38;;;1.73;;
70705;SDS011;59320;52.316;10.870;2023-05-16T04:53:30;4.60;;;1.80;;
70705;SDS011;59320;52.316;10.870;2023-05-16T04:55:58;5.25;;;2.00;;
70705;SDS011;59320;52.316;10.870;2023-05-16T04:58:25;7.10;;;2.33;;
70705;SDS011;59320;52.316;10.870;2023-05-16T05:00:52;2.72;;;1.63;;
70705;SDS011;59320;52.316;10.870;2023-05-16T05:03:22;4.57;;;2.05;;
70705;SDS011;59320;52.316;10.870;2023-05-16T05:05:49;5.10;;;2.17;;
70705;SDS011;59320;52.316;10.870;2023-05-16T05:08:18;5.75;;;2.10;;
70705;SDS011;59320;52.316;10.870;2023-05-16T05:10:45;5.05;;;2.17;;
70705;SDS011;59320;52.316;10.870;2023-05-16T05:13:12;5.78;;;1.88;;
70705;SDS011;59320;52.316;10.870;2023-05-16T05:15:39;3.30;;;1.73;;
70705;SDS011;59320;52.316;10.870;2023-05-16T05:18:06;7.03;;;2.03;;
70705;SDS011;59320;52.316;10.870;2023-05-16T05:20:33;5.55;;;1.58;;
70705;SDS011;59320;52.316;10.870;2023-05-16T05:23:00;3.88;;;1.67;;
70705;SDS011;59320;52.316;10.870;2023-05-16T05:25:29;3.40;;;1.55;;
70705;SDS011;59320;52.316;10.870;2023-05-16T05:27:58;5.85;;;1.55;;
70705;SDS011;59320;52.316;10.870;2023-05-16T05:30:25;4.45;;;1.70;;
70705;SDS011;59320;52.316;10.870;2023-05-16T05:32:52;9.27;;;1.70;;
70705;SDS011;59320;52.316;10.870;2023-05-16T05:35:19;6.78;;;2.03;;
70705;SDS011;59320;52.316;10.870;2023-05-16T05:37:46;8.70;;;1.80;;
70705;SDS011;59320;52.316;10.870;2023-05-16T05:40:13;7.43;;;1.77;;
70705;SDS011;59320;52.316;10.870;2023-05-16T05:42:42;5.13;;;2.20;;
70705;SDS011;59320;52.316;10.870;2023-05-16T05:45:09;5.68;;;1.70;;
70705;SDS011;59320;52.316;10.870;2023-05-16T05:47:36;4.65;;;1.58;;
70705;SDS011;59320;52.316;10.870;2023-05-16T05:52:50;5.95;;;1.77;;
70705;SDS011;59320;52.316;10.870;2023-05-16T05:55:17;4.70;;;1.80;;
70705;SDS011;59320;52.316;10.870;2023-05-16T05:57:45;6.65;;;2.00;;
70705;SDS011;59320;52.316;10.870;2023-05-16T06:00:12;6.78;;;2.00;;
70705;SDS011;59320;52.316;10.870;2023-05-16T06:02:40;5.18;;;1.63;;
70705;SDS011;59320;52.316;10.870;2023-05-16T06:05:07;8.05;;;1.73;;
70705;SDS011;59320;52.316;10.870;2023-05-16T06:07:34;7.55;;;1.63;;
70705;SDS011;59320;52.316;10.870;2023-05-16T06:10:02;6.05;;;1.70;;
70705;SDS011;59320;52.316;10.870;2023-05-16T06:12:29;9.25;;;1.40;;
70705;SDS011;59320;52.316;10.870;2023-05-16T06:14:58;7.32;;;1.88;;
70705;SDS011;59320;52.316;10.870;2023-05-16T06:17:25;10.02;;;1.70;;
70705;SDS011;59320;52.316;10.870;2023-05-16T06:19:52;8.07;;;1.73;;
70705;SDS011;59320;52.316;10.870;2023-05-16T06:22:19;8.30;;;1.55;;
70705;SDS011;59320;52.316;10.870;2023-05-16T06:24:46;11.07;;;1.95;;
70705;SDS011;59320;52.316;10.870;2023-05-16T06:27:16;4.30;;;1.40;;
70705;SDS011;59320;52.316;10.870;2023-05-16T06:29:43;6.95;;;1.42;;
70705;SDS011;59320;52.316;10.870;2023-05-16T06:32:12;7.30;;;1.85;;
70705;SDS011;59320;52.316;10.870;2023-05-16T06:34:39;12.60;;;1.95;;
70705;SDS011;59320;52.316;10.870;2023-05-16T06:37:06;15.50;;;2.13;;
70705;SDS011;59320;52.316;10.870;2023-05-16T06:39:33;7.40;;;1.55;;
70705;SDS011;59320;52.316;10.870;2023-05-16T06:42:00;8.45;;;1.58;;
70705;SDS011;59320;52.316;10.870;2023-05-16T06:44:30;7.68;;;1.70;;
70705;SDS011;59320;52.316;10.870;2023-05-16T06:46:57;8.93;;;2.17;;
70705;SDS011;59320;52.316;10.870;2023-05-16T06:49:26;10.27;;;1.67;;
70705;SDS011;59320;52.316;10.870;2023-05-16T06:51:53;6.88;;;1.60;;
70705;SDS011;59320;52.316;10.870;2023-05-16T06:54:20;10.73;;;1.80;;
70705;SDS011;59320;52.316;10.870;2023-05-16T06:56:47;5.72;;;1.60;;
70705;SDS011;59320;52.316;10.870;2023-05-16T06:59:14;11.05;;;2.10;;
70705;SDS011;59320;52.316;10.870;2023-05-16T07:01:41;10.48;;;2.00;;
70705;SDS011;59320;52.316;10.870;2023-05-16T07:04:08;11.15;;;1.92;;
70705;SDS011;59320;52.316;10.870;2023-05-16T07:06:37;8.23;;;1.92;;
70705;SDS011;59320;52.316;10.870;2023-05-16T07:09:04;12.93;;;1.90;;
70705;SDS011;59320;52.316;10.870;2023-05-16T07:11:31;10.30;;;1.92;;
70705;SDS011;59320;52.316;10.870;2023-05-16T07:13:58;9.98;;;2.20;;
70705;SDS011;59320;52.316;10.870;2023-05-16T07:16:25;8.27;;;2.10;;
70705;SDS011;59320;52.316;10.870;2023-05-16T07:18:52;9.90;;;1.80;;
70705;SDS011;59320;52.316;10.870;2023-05-16T07:24:18;10.32;;;1.92;;
70705;SDS011;59320;52.316;10.870;2023-05-16T07:26:45;9.90;;;2.00;;
70705;SDS011;59320;52.316;10.870;2023-05-16T07:29:15;14.77;;;2.25;;
70705;SDS011;59320;52.316;10.870;2023-05-16T07:31:43;9.00;;;1.85;;
70705;SDS011;59320;52.316;10.870;2023-05-16T07:34:10;10.40;;;1.90;;
70705;SDS011;59320;52.316;10.870;2023-05-16T07:36:37;11.85;;;2.65;;
70705;SDS011;59320;52.316;10.870;2023-05-16T07:39:05;9.15;;;1.80;;
70705;SDS011;59320;52.316;10.870;2023-05-16T07:41:32;9.55;;;2.20;;
70705;SDS011;59320;52.316;10.870;2023-05-16T07:44:00;13.88;;;2.28;;
70705;SDS011;59320;52.316;10.870;2023-05-16T07:46:27;12.10;;;2.83;;
70705;SDS011;59320;52.316;10.870;2023-05-16T07:48:54;8.85;;;1.77;;
70705;SDS011;59320;52.316;10.870;2023-05-16T07:51:21;12.85;;;2.00;;
70705;SDS011;59320;52.316;10.870;2023-05-16T07:53:48;9.57;;;1.73;;
70705;SDS011;59320;52.316;10.870;2023-05-16T07:56:17;7.72;;;2.03;;
70705;SDS011;59320;52.316;10.870;2023-05-16T07:58:44;5.82;;;1.58;;
70705;SDS011;59320;52.316;10.870;2023-05-16T08:01:13;11.25;;;1.98;;
70705;SDS011;59320;52.316;10.870;2023-05-16T08:03:41;7.97;;;1.67;;
70705;SDS011;59320;52.316;10.870;2023-05-16T08:06:09;9.32;;;1.60;;
70705;SDS011;59320;52.316;10.870;2023-05-16T08:08:36;9.00;;;1.70;;
70705;SDS011;59320;52.316;10.870;2023-05-16T08:11:03;10.73;;;2.05;;
70705;SDS011;59320;52.316;10.870;2023-05-16T08:13:32;11.20;;;2.55;;
70705;SDS011;59320;52.316;10.870;2023-05-16T08:15:59;9.27;;;2.00;;
70705;SDS011;59320;52.316;10.870;2023-05-16T08:18:26;8.90;;;1.70;;
70705;SDS011;59320;52.316;10.870;2023-05-16T08:20:53;11.13;;;2.03;;
70705;SDS011;59320;52.316;10.870;2023-05-16T08:23:20;13.45;;;2.55;;
70705;SDS011;59320;52.316;10.870;2023-05-16T08:25:47;8.38;;;1.98;;
70705;SDS011;59320;52.316;10.870;2023-05-16T08:28:14;13.05;;;2.42;;
70705;SDS011;59320;52.316;10.870;2023-05-16T08:30:43;13.60;;;2.22;;
70705;SDS011;59320;52.316;10.870;2023-05-16T08:33:10;15.27;;;2.88;;
70705;SDS011;59320;52.316;10.870;2023-05-16T08:35:41;6.93;;;1.67;;
70705;SDS011;59320;52.316;10.870;2023-05-16T08:38:08;7.78;;;1.67;;
70705;SDS011;59320;52.316;10.870;2023-05-16T08:40:36;5.28;;;1.55;;
70705;SDS011;59320;52.316;10.870;2023-05-16T08:43:03;8.10;;;1.83;;
70705;SDS011;59320;52.316;10.870;2023-05-16T08:45:30;8.00;;;1.80;;
70705;SDS011;59320;52.316;10.870;2023-05-16T08:47:59;11.80;;;2.15;;
70705;SDS011;59320;52.316;10.870;2023-05-16T08:50:28;11.20;;;1.73;;
70705;SDS011;59320;52.316;10.870;2023-05-16T08:52:57;9.73;;;1.65;;
70705;SDS011;59320;52.316;10.870;2023-05-16T08:57:58;7.25;;;1.58;;
70705;SDS011;59320;52.316;10.870;2023-05-16T09:00:26;6.03;;;1.42;;
70705;SDS011;59320;52.316;10.870;2023-05-16T09:02:54;8.00;;;2.05;;
70705;SDS011;59320;52.316;10.870;2023-05-16T09:05:23;7.53;;;1.52;;
70705;SDS011;59320;52.316;10.870;2023-05-16T09:07:50;10.07;;;1.90;;
70705;SDS011;59320;52.316;10.870;2023-05-16T09:10:17;10.32;;;1.67;;
70705;SDS011;59320;52.316;10.870;2023-05-16T09:12:45;8.32;;;2.03;;
70705;SDS011;59320;52.316;10.870;2023-05-16T09:15:13;9.27;;;1.92;;
70705;SDS011;59320;52.316;10.870;2023-05-16T09:17:41;5.97;;;1.80;;
70705;SDS011;59320;52.316;10.870;2023-05-16T09:20:10;9.63;;;1.98;;
70705;SDS011;59320;52.316;10.870;2023-05-16T09:22:48;10.10;;;4.93;;
70705;SDS011;59320;52.316;10.870;2023-05-16T09:25:16;10.70;;;2.33;;
70705;SDS011;59320;52.316;10.870;2023-05-16T09:27:44;9.15;;;1.75;;
70705;SDS011;59320;52.316;10.870;2023-05-16T09:30:13;7.35;;;2.22;;
70705;SDS011;59320;52.316;10.870;2023-05-16T09:32:42;8.45;;;1.60;;
70705;SDS011;59320;52.316;10.870;2023-05-16T09:35:10;8.60;;;2.42;;
70705;SDS011;59320;52.316;10.870;2023-05-16T09:37:44;7.82;;;2.40;;
70705;SDS011;59320;52.316;10.870;2023-05-16T09:40:12;5.55;;;2.03;;
70705;SDS011;59320;52.316;10.870;2023-05-16T09:42:40;6.40;;;1.88;;
70705;SDS011;59320;52.316;10.870;2023-05-16T09:45:10;7.10;;;1.48;;
70705;SDS011;59320;52.316;10.870;2023-05-16T09:47:38;5.60;;;1.35;;
70705;SDS011;59320;52.316;10.870;2023-05-16T09:50:11;4.95;;;1.10;;
70705;SDS011;59320;52.316;10.870;2023-05-16T09:52:40;7.80;;;1.30;;
70705;SDS011;59320;52.316;10.870;2023-05-16T09:55:10;7.28;;;1.48;;
70705;SDS011;59320;52.316;10.870;2023-05-16T09:57:37;6.05;;;1.23;;
70705;SDS011;59320;52.316;10.870;2023-05-16T10:00:05;6.88;;;1.55;;
70705;SDS011;59320;52.316;10.870;2023-05-16T10:02:36;9.68;;;1.65;;
70705;SDS011;59320;52.316;10.870;2023-05-16T10:05:04;9.65;;;1.60;;
70705;SDS011;59320;52.316;10.870;2023-05-16T10:07:32;6.32;;;1.55;;
70705;SDS011;59320;52.316;10.870;2023-05-16T10:10:00;6.25;;;1.25;;
70705;SDS011;59320;52.316;10.870;2023-05-16T10:12:33;6.85;;;1.27;;
70705;SDS011;59320;52.316;10.870;2023-05-16T10:15:03;8.45;;;2.22;;
70705;SDS011;59320;52.316;10.870;2023-05-16T10:17:32;5.25;;;1.40;;
70705;SDS011;59320;52.316;10.870;2023-05-16T10:20:03;11.00;;;1.55;;
70705;SDS011;59320;52.316;10.870;2023-05-16T10:22:33;10.90;;;1.70;;
70705;SDS011;59320;52.316;10.870;2023-05-16T10:25:05;7.15;;;1.58;;
70705;SDS011;59320;52.316;10.870;2023-05-16T10:27:39;11.50;;;1.65;;
70705;SDS011;59320;52.316;10.870;2023-05-16T10:30:08;7.82;;;1.35;;
70705;SDS011;59320;52.316;10.870;2023-05-16T10:32:36;9.55;;;1.40;;
70705;SDS011;59320;52.316;10.870;2023-05-16T10:35:03;7.00;;;1.40;;
70705;SDS011;59320;52.316;10.870;2023-05-16T10:37:31;5.07;;;0.95;;
70705;SDS011;59320;52.316;10.870;2023-05-16T10:40:01;4.97;;;1.20;;
70705;SDS011;59320;52.316;10.870;2023-05-16T10:42:30;6.22;;;1.30;;
70705;SDS011;59320;52.316;10.870;2023-05-16T10:45:09;10.32;;;1.55;;
70705;SDS011;59320;52.316;10.870;2023-05-16T10:47:49;5.20;;;1.13;;
70705;SDS011;59320;52.316;10.870;2023-05-16T10:50:33;9.32;;;1.25;;
70705;SDS011;59320;52.316;10.870;2023-05-16T10:53:12;4.55;;;1.27;;
70705;SDS011;59320;52.316;10.870;2023-05-16T10:55:49;4.43;;;1.20;;
70705;SDS011;59320;52.316;10.870;2023-05-16T10:58:38;7.15;;;1.50;;
70705;SDS011;59320;52.316;10.870;2023-05-16T11:01:17;5.22;;;1.10;;
70705;SDS011;59320;52.316;10.870;2023-05-16T11:04:03;4.65;;;1.20;;
70705;SDS011;59320;52.316;10.870;2023-05-16T11:06:32;4.25;;;1.20;;
70705;SDS011;59320;52.316;10.870;2023-05-16T11:09:03;6.43;;;1.20;;
70705;SDS011;59320;52.316;10.870;2023-05-16T11:11:41;5.30;;;0.90;;
70705;SDS011;59320;52.316;10.870;2023-05-16T11:14:16;4.50;;;0.90;;
70705;SDS011;59320;52.316;10.870;2023-05-16T11:16:51;5.68;;;0.90;;
70705;SDS011;59320;52.316;10.870;2023-05-16T11:19:30;4.63;;;0.93;;
70705;SDS011;59320;52.316;10.870;2023-05-16T11:22:05;2.75;;;1.10;;
70705;SDS011;59320;52.316;10.870;2023-05-16T11:24:44;3.30;;;1.20;;
70705;SDS011;59320;52.316;10.870;2023-05-16T11:27:20;4.90;;;0.90;;
70705;SDS011;59320;52.316;10.870;2023-05-16T11:29:48;4.25;;;1.35;;
70705;SDS011;59320;52.316;10.870;2023-05-16T11:32:19;5.22;;;1.08;;
70705;SDS011;59320;52.316;10.870;2023-05-16T11:34:47;4.70;;;1.10;;
70705;SDS011;59320;52.316;10.870;2023-05-16T11:37:15;4.40;;;1.10;;
70705;SDS011;59320;52.316;10.870;2023-05-16T11:39:43;3.72;;;0.90;;
70705;SDS011;59320;52.316;10.870;2023-05-16T11:42:11;5.30;;;1.02;;
70705;SDS011;59320;52.316;10.870;2023-05-16T11:44:38;2.60;;;0.90;;
70705;SDS011;59320;52.316;10.870;2023-05-16T11:47:05;4.75;;;0.95;;
70705;SDS011;59320;52.316;10.870;2023-05-16T11:49:34;10.48;;;5.22;;
70705;SDS011;59320;52.316;10.870;2023-05-16T11:52:01;6.72;;;2.28;;
70705;SDS011;59320;52.316;10.870;2023-05-16T11:54:29;4.15;;;1.38;;
70705;SDS011;59320;52.316;10.870;2023-05-16T11:56:56;11.35;;;5.55;;
70705;SDS011;59320;52.316;10.870;2023-05-16T11:59:24;5.70;;;1.80;;
70705;SDS011;59320;52.316;10.870;2023-05-16T12:01:51;7.72;;;3.00;;
70705;SDS011;59320;52.316;10.870;2023-05-16T12:04:18;8.60;;;2.85;;
70705;SDS011;59320;52.316;10.870;2023-05-16T12:06:56;5.78;;;1.60;;
70705;SDS011;59320;52.316;10.870;2023-05-16T12:09:26;6.95;;;1.83;;
70705;SDS011;59320;52.316;10.870;2023-05-16T12:11:53;4.45;;;1.60;;
70705;SDS011;59320;52.316;10.870;2023-05-16T12:14:20;4.68;;;1.67;;
70705;SDS011;59320;52.316;10.870;2023-05-16T12:16:48;9.48;;;3.20;;
70705;SDS011;59320;52.316;10.870;2023-05-16T12:19:17;17.88;;;11.27;;
70705;SDS011;59320;52.316;10.870;2023-05-16T12:21:44;11.05;;;4.22;;
70705;SDS011;59320;52.316;10.870;2023-05-16T12:24:13;4.53;;;2.50;;
70705;SDS011;59320;52.316;10.870;2023-05-16T12:26:40;6.80;;;1.48;;
70705;SDS011;59320;52.316;10.870;2023-05-16T12:29:09;4.35;;;1.90;;
70705;SDS011;59320;52.316;10.870;2023-05-16T12:31:37;6.97;;;4.10;;
70705;SDS011;59320;52.316;10.870;2023-05-16T12:34:16;7.10;;;5.15;;
70705;SDS011;59320;52.316;10.870;2023-05-16T12:36:46;5.65;;;1.30;;
70705;SDS011;59320;52.316;10.870;2023-05-16T12:39:18;5.20;;;1.08;;
70705;SDS011;59320;52.316;10.870;2023-05-16T12:41:45;3.85;;;0.98;;
70705;SDS011;59320;52.316;10.870;2023-05-16T12:44:13;4.93;;;1.45;;
70705;SDS011;59320;52.316;10.870;2023-05-16T12:46:43;4.50;;;1.58;;
70705;SDS011;59320;52.316;10.870;2023-05-16T12:49:12;4.97;;;2.60;;
70705;SDS011;59320;52.316;10.870;2023-05-16T12:51:46;9.55;;;6.05;;
70705;SDS011;59320;52.316;10.870;2023-05-16T12:54:15;24.00;;;19.42;;
70705;SDS011;59320;52.316;10.870;2023-05-16T12:56:43;8.35;;;3.28;;
70705;SDS011;59320;52.316;10.870;2023-05-16T12:59:11;4.28;;;1.23;;
70705;SDS011;59320;52.316;10.870;2023-05-16T13:01:38;6.38;;;1.38;;
70705;SDS011;59320;52.316;10.870;2023-05-16T13:04:06;3.63;;;1.35;;
70705;SDS011;59320;52.316;10.870;2023-05-16T13:06:35;2.85;;;0.80;;
70705;SDS011;59320;52.316;10.870;2023-05-16T13:09:03;4.70;;;0.93;;
70705;SDS011;59320;52.316;10.870;2023-05-16T13:11:30;3.15;;;0.90;;
70705;SDS011;59320;52.316;10.870;2023-05-16T13:13:58;5.13;;;0.85;;
70705;SDS011;59320;52.316;10.870;2023-05-16T13:16:25;5.40;;;1.27;;
70705;SDS011;59320;52.316;10.870;2023-05-16T13:18:53;3.97;;;1.00;;
70705;SDS011;59320;52.316;10.870;2023-05-16T13:21:20;4.25;;;1.27;;
70705;SDS011;59320;52.316;10.870;2023-05-16T13:23:47;2.05;;;1.02;;
70705;SDS011;59320;52.316;10.870;2023-05-16T13:26:14;2.50;;;1.08;;
70705;SDS011;59320;52.316;10.870;2023-05-16T13:28:41;4.18;;;0.77;;
70705;SDS011;59320;52.316;10.870;2023-05-16T13:31:09;3.22;;;0.60;;
70705;SDS011;59320;52.316;10.870;2023-05-16T13:33:36;5.60;;;1.05;;
70705;SDS011;59320;52.316;10.870;2023-05-16T13:36:04;3.03;;;0.90;;
70705;SDS011;59320;52.316;10.870;2023-05-16T13:38:31;3.58;;;0.95;;
70705;SDS011;59320;52.316;10.870;2023-05-16T13:40:58;4.53;;;0.80;;
70705;SDS011;59320;52.316;10.870;2023-05-16T13:43:25;4.35;;;1.10;;
70705;SDS011;59320;52.316;10.870;2023-05-16T13:45:52;7.10;;;1.40;;
70705;SDS011;59320;52.316;10.870;2023-05-16T13:48:20;4.00;;;0.88;;
70705;SDS011;59320;52.316;10.870;2023-05-16T13:50:47;3.88;;;0.95;;
70705;SDS011;59320;52.316;10.870;2023-05-16T13:53:16;2.72;;;1.08;;
70705;SDS011;59320;52.316;10.870;2023-05-16T13:55:43;3.95;;;0.90;;
70705;SDS011;59320;52.316;10.870;2023-05-16T13:58:10;4.07;;;0.80;;
70705;SDS011;59320;52.316;10.870;2023-05-16T14:00:37;5.43;;;1.02;;
70705;SDS011;59320;52.316;10.870;2023-05-16T14:03:08;8.77;;;1.33;;
70705;SDS011;59320;52.316;10.870;2023-05-16T14:05:36;7.15;;;1.63;;
70705;SDS011;59320;52.316;10.870;2023-05-16T14:08:03;2.20;;;0.85;;
70705;SDS011;59320;52.316;10.870;2023-05-16T14:10:31;4.75;;;1.27;;
70705;SDS011;59320;52.316;10.870;2023-05-16T14:12:58;5.43;;;0.93;;
70705;SDS011;59320;52.316;10.870;2023-05-16T14:15:25;5.43;;;1.40;;
70705;SDS011;59320;52.316;10.870;2023-05-16T14:17:52;7.53;;;1.10;;
70705;SDS011;59320;52.316;10.870;2023-05-16T14:23:12;4.50;;;1.33;;
70705;SDS011;59320;52.316;10.870;2023-05-16T14:25:39;3.60;;;1.20;;
70705;SDS011;59320;52.316;10.870;2023-05-16T14:31:00;4.43;;;1.00;;
70705;SDS011;59320;52.316;10.870;2023-05-16T14:33:27;4.13;;;0.90;;
70705;SDS011;59320;52.316;10.870;2023-05-16T14:35:56;2.00;;;0.90;;
70705;SDS011;59320;52.316;10.870;2023-05-16T14:38:23;4.00;;;0.80;;
70705;SDS011;59320;52.316;10.870;2023-05-16T14:40:50;5.88;;;0.88;;
70705;SDS011;59320;52.316;10.870;2023-05-16T14:43:17;2.60;;;1.08;;
70705;SDS011;59320;52.316;10.870;2023-05-16T14:45:44;3.50;;;1.33;;
70705;SDS011;59320;52.316;10.870;2023-05-16T14:48:12;3.35;;;1.45;;
70705;SDS011;59320;52.316;10.870;2023-05-16T14:50:39;1.38;;;1.20;;
70705;SDS011;59320;52.316;10.870;2023-05-16T14:53:08;4.13;;;1.33;;
70705;SDS011;59320;52.316;10.870;2023-05-16T14:55:35;3.38;;;1.25;;
70705;SDS011;59320;52.316;10.870;2023-05-16T14:58:02;4.95;;;1.58;;
70705;SDS011;59320;52.316;10.870;2023-05-16T15:00:31;5.53;;;1.60;;